Terminal Aerodrome Forecast
Issued by NWS

Home | Current Version | Previous Version | Text Only | Print | Product List | Glossary On
Versions: 1 2 3 4 5 6 7 8 9 10 11 12
000
FTUS46 KSEW 232320
TAFCLM
TAF
KCLM 232320Z 2400/2424 30010KT P6SM VCSH SCT035 OVC060
      TEMPO 2400/2404 -SHRA BKN030 OVC050
     FM240400 25004KT P6SM -SHRA BKN025 OVC050
     FM241800 VRB04KT P6SM SCT025 BKN060=

USA.gov is the U.S. government's official web portal to all federal, state and local government web resources and services.